HRP weather

Reforma Plus Heliport
Miguel Hidalgo, Distrito Federal, Mexico

Public forecast

Using degrees Celsius for public forecast. Weather courtesy of forecast.io.

METAR (pilot weather report)

Closest report is Licenciado Benito Juarez International Airport, 9.8 nm (18.1 km) ENE. Retrieved 2019/09/22 20:56 UTC (25 minutes ago):

MMMX 222056Z 26008KT 6SM SCT025 25/08 A3026 NOSIG RMK SLP063 57025 900 8/200 HZY TCU 2ND QUAD

TAF (pilot weather forecast)

Closest forecast is Licenciado Benito Juarez International Airport, 9.8 nm (18.1 km) ENE. Retrieved 2019/09/22 18:15 UTC (3 hours ago):

TAF MMMX 221713Z 2218/2324 00000KT 5SM HZ BKN025 TX25/2221Z TN14/2312Z FM222000 04012KT P6SM BKN030 TEMPO 2223/2302 5SM TSRA BKN025CB FM230300 00000KT P6SM SCT025 BKN100 FM231000 00000KT 5SM HZ BKN020 FM231600 04005KT P6SM SCT025 FM232100 06012KT P6SM BKN025